Terminal Aerodrome Forecast
Issued by NWS

Home | Current Version | Previous Version | Text Only | Print | Product List | Glossary On
Versions: 1 2 3 4 5 6 7 8 9 10 11 12 13 14 15 16 17 18 19 20 21 22 23 24 25 26 27 28 29 30 31 32 33 34 35 36 37 38 39 40 41 42 43 44 45 46 47
747
FTUS41 KCTP 182134 AAA
TAFLNS
TAF AMD
KLNS 182134Z 1822/1918 11005KT 2SM RA BKN050 OVC070
     FM182300 18008KT P6SM VCSH OVC030 WS020/21045KT
     FM191100 28018G32KT P6SM VCSH OVC030
     FM191300 29021G40KT P6SM BKN040=

USA.gov is the U.S. government's official web portal to all federal, state and local government web resources and services.